Terminal Aerodrome Forecast
Issued by NWS Boston, MA

Home | Current Version | Previous Version | Text Only | Print | Product List | Glossary On
Versions: 1 2 3 4 5 6 7 8 9 10 11 12 13 14 15 16 17 18 19 20 21 22 23
000
FTUS41 KBOX 282333
TAFPVD
TAF
KPVD 282333Z 2900/2924 18009KT P6SM FEW130
     FM290800 22006KT P6SM SCT060
     FM291000 23006KT P6SM VCSH BKN070
     FM291300 25007KT P6SM SCT120
     FM291500 27008KT P6SM SCT200
     FM292100 31008KT P6SM FEW250=

USA.gov is the U.S. government's official web portal to all federal, state and local government web resources and services.